sensor_id;sensor_type;location;lat;lon;timestamp;P1;durP1;ratioP1;P2;durP2;ratioP2
53867;SDS011;41577;47.470;19.080;2023-07-31T00:00:09;1.30;;;1.20;;
53867;SDS011;41577;47.470;19.080;2023-07-31T00:00:21;1.40;;;1.30;;
53867;SDS011;41577;47.470;19.080;2023-07-31T00:00:33;1.55;;;1.30;;
53867;SDS011;41577;47.470;19.080;2023-07-31T00:00:45;1.83;;;1.35;;
53867;SDS011;41577;47.470;19.080;2023-07-31T00:00:57;2.10;;;1.60;;
53867;SDS011;41577;47.470;19.080;2023-07-31T00:01:10;1.70;;;1.60;;
53867;SDS011;41577;47.470;19.080;2023-07-31T00:01:22;5.80;;;1.40;;
53867;SDS011;41577;47.470;19.080;2023-07-31T00:01:36;5.75;;;1.38;;
53867;SDS011;41577;47.470;19.080;2023-07-31T00:01:49;3.60;;;1.48;;
53867;SDS011;41577;47.470;19.080;2023-07-31T00:02:01;2.85;;;1.52;;
53867;SDS011;41577;47.470;19.080;2023-07-31T00:02:13;2.25;;;1.60;;
53867;SDS011;41577;47.470;19.080;2023-07-31T00:02:25;1.80;;;1.58;;
53867;SDS011;41577;47.470;19.080;2023-07-31T00:02:38;2.38;;;1.55;;
53867;SDS011;41577;47.470;19.080;2023-07-31T00:02:51;2.38;;;1.45;;
53867;SDS011;41577;47.470;19.080;2023-07-31T00:03:03;2.88;;;1.50;;
53867;SDS011;41577;47.470;19.080;2023-07-31T00:03:16;2.80;;;1.50;;
53867;SDS011;41577;47.470;19.080;2023-07-31T00:03:28;1.88;;;1.55;;
53867;SDS011;41577;47.470;19.080;2023-07-31T00:03:40;1.50;;;1.33;;
53867;SDS011;41577;47.470;19.080;2023-07-31T00:03:53;1.58;;;1.40;;
53867;SDS011;41577;47.470;19.080;2023-07-31T00:04:05;1.75;;;1.30;;
53867;SDS011;41577;47.470;19.080;2023-07-31T00:04:17;1.70;;;1.30;;
53867;SDS011;41577;47.470;19.080;2023-07-31T00:04:29;1.50;;;1.40;;
53867;SDS011;41577;47.470;19.080;2023-07-31T00:04:42;2.70;;;1.60;;
53867;SDS011;41577;47.470;19.080;2023-07-31T00:04:54;2.53;;;1.67;;
53867;SDS011;41577;47.470;19.080;2023-07-31T00:05:07;2.17;;;1.33;;
53867;SDS011;41577;47.470;19.080;2023-07-31T00:05:21;1.30;;;1.20;;
53867;SDS011;41577;47.470;19.080;2023-07-31T00:05:36;1.50;;;1.40;;
53867;SDS011;41577;47.470;19.080;2023-07-31T00:05:49;1.63;;;1.52;;
53867;SDS011;41577;47.470;19.080;2023-07-31T00:06:02;1.67;;;1.58;;
53867;SDS011;41577;47.470;19.080;2023-07-31T00:06:14;1.70;;;1.60;;
53867;SDS011;41577;47.470;19.080;2023-07-31T00:06:27;1.70;;;1.60;;
53867;SDS011;41577;47.470;19.080;2023-07-31T00:06:39;2.60;;;1.42;;
53867;SDS011;41577;47.470;19.080;2023-07-31T00:06:54;2.40;;;1.40;;
53867;SDS011;41577;47.470;19.080;2023-07-31T00:07:07;1.60;;;1.50;;
53867;SDS011;41577;47.470;19.080;2023-07-31T00:07:19;1.60;;;1.50;;
53867;SDS011;41577;47.470;19.080;2023-07-31T00:07:32;1.73;;;1.60;;
53867;SDS011;41577;47.470;19.080;2023-07-31T00:07:45;1.70;;;1.60;;
53867;SDS011;41577;47.470;19.080;2023-07-31T00:08:00;1.63;;;1.52;;
53867;SDS011;41577;47.470;19.080;2023-07-31T00:08:12;1.50;;;1.40;;
53867;SDS011;41577;47.470;19.080;2023-07-31T00:08:24;4.10;;;1.60;;
53867;SDS011;41577;47.470;19.080;2023-07-31T00:08:37;4.20;;;1.60;;
53867;SDS011;41577;47.470;19.080;2023-07-31T00:08:51;1.77;;;1.67;;
53867;SDS011;41577;47.470;19.080;2023-07-31T00:09:04;1.60;;;1.50;;
53867;SDS011;41577;47.470;19.080;2023-07-31T00:09:21;1.45;;;1.35;;
53867;SDS011;41577;47.470;19.080;2023-07-31T00:09:38;2.72;;;1.50;;
53867;SDS011;41577;47.470;19.080;2023-07-31T00:09:50;2.70;;;1.52;;
53867;SDS011;41577;47.470;19.080;2023-07-31T00:10:03;2.28;;;1.40;;
53867;SDS011;41577;47.470;19.080;2023-07-31T00:10:15;2.20;;;1.33;;
53867;SDS011;41577;47.470;19.080;2023-07-31T00:10:27;3.38;;;1.50;;
53867;SDS011;41577;47.470;19.080;2023-07-31T00:10:39;2.35;;;1.42;;
53867;SDS011;41577;47.470;19.080;2023-07-31T00:10:51;1.80;;;1.40;;
53867;SDS011;41577;47.470;19.080;2023-07-31T00:11:03;1.30;;;1.20;;
53867;SDS011;41577;47.470;19.080;2023-07-31T00:11:15;4.05;;;1.30;;
53867;SDS011;41577;47.470;19.080;2023-07-31T00:11:27;4.15;;;1.38;;
53867;SDS011;41577;47.470;19.080;2023-07-31T00:11:39;5.07;;;1.70;;
53867;SDS011;41577;47.470;19.080;2023-07-31T00:11:51;2.25;;;1.50;;
53867;SDS011;41577;47.470;19.080;2023-07-31T00:12:03;2.30;;;1.55;;
53867;SDS011;41577;47.470;19.080;2023-07-31T00:12:16;2.85;;;1.38;;
53867;SDS011;41577;47.470;19.080;2023-07-31T00:12:27;2.75;;;1.40;;
53867;SDS011;41577;47.470;19.080;2023-07-31T00:12:40;1.65;;;1.40;;
53867;SDS011;41577;47.470;19.080;2023-07-31T00:12:54;4.00;;;1.52;;
53867;SDS011;41577;47.470;19.080;2023-07-31T00:13:05;4.50;;;1.30;;
53867;SDS011;41577;47.470;19.080;2023-07-31T00:13:17;4.90;;;1.38;;
53867;SDS011;41577;47.470;19.080;2023-07-31T00:13:29;1.42;;;1.30;;
53867;SDS011;41577;47.470;19.080;2023-07-31T00:13:41;1.70;;;1.30;;
53867;SDS011;41577;47.470;19.080;2023-07-31T00:13:53;2.17;;;1.48;;
53867;SDS011;41577;47.470;19.080;2023-07-31T00:14:05;1.92;;;1.65;;
53867;SDS011;41577;47.470;19.080;2023-07-31T00:14:17;2.90;;;1.65;;
53867;SDS011;41577;47.470;19.080;2023-07-31T00:14:29;3.55;;;1.50;;
53867;SDS011;41577;47.470;19.080;2023-07-31T00:14:41;7.45;;;1.70;;
53867;SDS011;41577;47.470;19.080;2023-07-31T00:14:53;5.72;;;1.50;;
53867;SDS011;41577;47.470;19.080;2023-07-31T00:15:05;4.40;;;1.38;;
53867;SDS011;41577;47.470;19.080;2023-07-31T00:15:18;1.73;;;1.30;;
53867;SDS011;41577;47.470;19.080;2023-07-31T00:15:30;1.75;;;1.33;;
53867;SDS011;41577;47.470;19.080;2023-07-31T00:15:42;2.22;;;1.45;;
53867;SDS011;41577;47.470;19.080;2023-07-31T00:15:54;1.92;;;1.25;;
53867;SDS011;41577;47.470;19.080;2023-07-31T00:16:06;1.50;;;1.40;;
53867;SDS011;41577;47.470;19.080;2023-07-31T00:16:18;1.55;;;1.45;;
53867;SDS011;41577;47.470;19.080;2023-07-31T00:16:31;1.80;;;1.48;;
53867;SDS011;41577;47.470;19.080;2023-07-31T00:16:43;2.00;;;1.35;;
53867;SDS011;41577;47.470;19.080;2023-07-31T00:16:55;1.95;;;1.15;;
53867;SDS011;41577;47.470;19.080;2023-07-31T00:17:07;2.22;;;1.27;;
53867;SDS011;41577;47.470;19.080;2023-07-31T00:17:19;1.52;;;1.42;;
53867;SDS011;41577;47.470;19.080;2023-07-31T00:17:31;1.45;;;1.38;;
53867;SDS011;41577;47.470;19.080;2023-07-31T00:17:43;1.42;;;1.33;;
53867;SDS011;41577;47.470;19.080;2023-07-31T00:17:55;1.30;;;1.20;;
53867;SDS011;41577;47.470;19.080;2023-07-31T00:18:07;1.20;;;1.20;;
53867;SDS011;41577;47.470;19.080;2023-07-31T00:18:27;1.40;;;1.30;;
53867;SDS011;41577;47.470;19.080;2023-07-31T00:18:39;1.58;;;1.48;;
53867;SDS011;41577;47.470;19.080;2023-07-31T00:18:51;1.63;;;1.40;;
53867;SDS011;41577;47.470;19.080;2023-07-31T00:19:02;1.42;;;1.23;;
53867;SDS011;41577;47.470;19.080;2023-07-31T00:19:15;1.98;;;1.38;;
53867;SDS011;41577;47.470;19.080;2023-07-31T00:19:27;1.80;;;1.40;;
53867;SDS011;41577;47.470;19.080;2023-07-31T00:19:39;2.60;;;1.33;;
53867;SDS011;41577;47.470;19.080;2023-07-31T00:19:51;3.80;;;1.30;;
53867;SDS011;41577;47.470;19.080;2023-07-31T00:20:04;3.80;;;1.27;;
53867;SDS011;41577;47.470;19.080;2023-07-31T00:20:16;1.30;;;1.20;;
53867;SDS011;41577;47.470;19.080;2023-07-31T00:20:28;1.30;;;1.15;;
53867;SDS011;41577;47.470;19.080;2023-07-31T00:20:40;1.35;;;1.25;;
53867;SDS011;41577;47.470;19.080;2023-07-31T00:20:52;1.50;;;1.40;;
53867;SDS011;41577;47.470;19.080;2023-07-31T00:21:05;1.50;;;1.40;;
53867;SDS011;41577;47.470;19.080;2023-07-31T00:21:16;1.50;;;1.40;;
53867;SDS011;41577;47.470;19.080;2023-07-31T00:21:28;1.40;;;1.23;;
53867;SDS011;41577;47.470;19.080;2023-07-31T00:21:40;1.73;;;1.33;;
53867;SDS011;41577;47.470;19.080;2023-07-31T00:21:52;1.58;;;1.48;;
53867;SDS011;41577;47.470;19.080;2023-07-31T00:22:04;1.42;;;1.33;;
53867;SDS011;41577;47.470;19.080;2023-07-31T00:22:17;1.30;;;1.20;;
53867;SDS011;41577;47.470;19.080;2023-07-31T00:22:29;1.25;;;1.15;;
53867;SDS011;41577;47.470;19.080;2023-07-31T00:22:41;1.52;;;1.20;;
53867;SDS011;41577;47.470;19.080;2023-07-31T00:22:53;3.53;;;1.33;;
53867;SDS011;41577;47.470;19.080;2023-07-31T00:23:05;3.65;;;1.40;;
53867;SDS011;41577;47.470;19.080;2023-07-31T00:23:16;1.65;;;1.38;;
53867;SDS011;41577;47.470;19.080;2023-07-31T00:23:28;1.58;;;1.40;;
53867;SDS011;41577;47.470;19.080;2023-07-31T00:23:41;2.15;;;1.50;;
53867;SDS011;41577;47.470;19.080;2023-07-31T00:23:54;2.30;;;1.38;;
53867;SDS011;41577;47.470;19.080;2023-07-31T00:24:06;1.65;;;1.20;;
53867;SDS011;41577;47.470;19.080;2023-07-31T00:24:18;1.83;;;1.33;;
53867;SDS011;41577;47.470;19.080;2023-07-31T00:24:31;1.65;;;1.38;;
53867;SDS011;41577;47.470;19.080;2023-07-31T00:24:43;1.90;;;1.20;;
53867;SDS011;41577;47.470;19.080;2023-07-31T00:24:55;1.23;;;1.10;;
53867;SDS011;41577;47.470;19.080;2023-07-31T00:25:07;1.30;;;1.20;;
53867;SDS011;41577;47.470;19.080;2023-07-31T00:25:19;1.65;;;1.50;;
53867;SDS011;41577;47.470;19.080;2023-07-31T00:25:31;1.77;;;1.45;;
53867;SDS011;41577;47.470;19.080;2023-07-31T00:25:43;1.75;;;1.50;;
53867;SDS011;41577;47.470;19.080;2023-07-31T00:25:55;2.63;;;1.58;;
53867;SDS011;41577;47.470;19.080;2023-07-31T00:26:07;4.00;;;1.50;;
53867;SDS011;41577;47.470;19.080;2023-07-31T00:26:19;4.93;;;1.45;;
53867;SDS011;41577;47.470;19.080;2023-07-31T00:26:31;6.72;;;1.40;;
53867;SDS011;41577;47.470;19.080;2023-07-31T00:26:43;4.70;;;1.40;;
53867;SDS011;41577;47.470;19.080;2023-07-31T00:26:56;1.70;;;1.38;;
53867;SDS011;41577;47.470;19.080;2023-07-31T00:27:08;1.67;;;1.48;;
53867;SDS011;41577;47.470;19.080;2023-07-31T00:27:19;2.10;;;1.40;;
53867;SDS011;41577;47.470;19.080;2023-07-31T00:27:31;2.10;;;1.38;;
53867;SDS011;41577;47.470;19.080;2023-07-31T00:27:43;1.58;;;1.27;;
53867;SDS011;41577;47.470;19.080;2023-07-31T00:27:55;1.33;;;1.23;;
53867;SDS011;41577;47.470;19.080;2023-07-31T00:28:07;1.42;;;1.33;;
53867;SDS011;41577;47.470;19.080;2023-07-31T00:28:19;1.75;;;1.50;;
53867;SDS011;41577;47.470;19.080;2023-07-31T00:28:31;3.53;;;1.58;;
53867;SDS011;41577;47.470;19.080;2023-07-31T00:28:44;3.13;;;1.33;;
53867;SDS011;41577;47.470;19.080;2023-07-31T00:28:58;3.45;;;1.30;;
53867;SDS011;41577;47.470;19.080;2023-07-31T00:29:10;3.58;;;1.40;;
53867;SDS011;41577;47.470;19.080;2023-07-31T00:29:22;3.65;;;1.50;;
53867;SDS011;41577;47.470;19.080;2023-07-31T00:29:34;3.72;;;1.40;;
53867;SDS011;41577;47.470;19.080;2023-07-31T00:29:48;1.55;;;1.20;;
53867;SDS011;41577;47.470;19.080;2023-07-31T00:30:00;1.48;;;1.30;;
53867;SDS011;41577;47.470;19.080;2023-07-31T00:30:12;1.50;;;1.38;;
53867;SDS011;41577;47.470;19.080;2023-07-31T00:30:24;1.60;;;1.33;;
53867;SDS011;41577;47.470;19.080;2023-07-31T00:30:38;2.55;;;1.42;;
53867;SDS011;41577;47.470;19.080;2023-07-31T00:30:49;3.25;;;1.60;;
53867;SDS011;41577;47.470;19.080;2023-07-31T00:31:02;3.70;;;1.50;;
53867;SDS011;41577;47.470;19.080;2023-07-31T00:31:14;3.00;;;1.42;;
53867;SDS011;41577;47.470;19.080;2023-07-31T00:31:26;1.85;;;1.25;;
53867;SDS011;41577;47.470;19.080;2023-07-31T00:31:38;1.40;;;1.30;;
53867;SDS011;41577;47.470;19.080;2023-07-31T00:31:50;1.77;;;1.67;;
53867;SDS011;41577;47.470;19.080;2023-07-31T00:32:02;1.90;;;1.77;;
53867;SDS011;41577;47.470;19.080;2023-07-31T00:32:15;2.05;;;1.85;;
53867;SDS011;41577;47.470;19.080;2023-07-31T00:32:27;1.73;;;1.58;;
53867;SDS011;41577;47.470;19.080;2023-07-31T00:32:38;1.63;;;1.45;;
53867;SDS011;41577;47.470;19.080;2023-07-31T00:32:50;1.55;;;1.40;;
53867;SDS011;41577;47.470;19.080;2023-07-31T00:33:03;1.63;;;1.45;;
53867;SDS011;41577;47.470;19.080;2023-07-31T00:33:15;1.83;;;1.33;;
53867;SDS011;41577;47.470;19.080;2023-07-31T00:33:27;1.98;;;1.38;;
53867;SDS011;41577;47.470;19.080;2023-07-31T00:33:39;1.67;;;1.27;;
53867;SDS011;41577;47.470;19.080;2023-07-31T00:33:51;1.42;;;1.27;;
53867;SDS011;41577;47.470;19.080;2023-07-31T00:34:03;1.58;;;1.48;;
53867;SDS011;41577;47.470;19.080;2023-07-31T00:34:19;1.42;;;1.25;;
53867;SDS011;41577;47.470;19.080;2023-07-31T00:34:31;1.42;;;1.13;;
53867;SDS011;41577;47.470;19.080;2023-07-31T00:34:43;1.40;;;1.13;;
53867;SDS011;41577;47.470;19.080;2023-07-31T00:34:55;2.30;;;1.30;;
53867;SDS011;41577;47.470;19.080;2023-07-31T00:35:07;3.03;;;1.33;;
53867;SDS011;41577;47.470;19.080;2023-07-31T00:35:19;4.57;;;1.48;;
53867;SDS011;41577;47.470;19.080;2023-07-31T00:35:31;5.00;;;1.45;;
53867;SDS011;41577;47.470;19.080;2023-07-31T00:35:43;2.13;;;1.20;;
53867;SDS011;41577;47.470;19.080;2023-07-31T00:35:55;1.55;;;1.20;;
53867;SDS011;41577;47.470;19.080;2023-07-31T00:36:07;1.17;;;1.17;;
53867;SDS011;41577;47.470;19.080;2023-07-31T00:36:19;1.30;;;1.20;;
53867;SDS011;41577;47.470;19.080;2023-07-31T00:36:32;1.40;;;1.30;;
53867;SDS011;41577;47.470;19.080;2023-07-31T00:36:44;2.00;;;1.48;;
53867;SDS011;41577;47.470;19.080;2023-07-31T00:36:56;2.10;;;1.67;;
53867;SDS011;41577;47.470;19.080;2023-07-31T00:37:08;2.78;;;1.77;;
53867;SDS011;41577;47.470;19.080;2023-07-31T00:37:20;2.22;;;1.60;;
53867;SDS011;41577;47.470;19.080;2023-07-31T00:37:32;1.58;;;1.30;;
53867;SDS011;41577;47.470;19.080;2023-07-31T00:37:44;1.30;;;1.15;;
53867;SDS011;41577;47.470;19.080;2023-07-31T00:37:56;1.40;;;1.25;;
53867;SDS011;41577;47.470;19.080;2023-07-31T00:38:09;1.30;;;1.20;;
53867;SDS011;41577;47.470;19.080;2023-07-31T00:38:21;1.20;;;1.10;;
53867;SDS011;41577;47.470;19.080;2023-07-31T00:38:33;1.15;;;1.05;;
53867;SDS011;41577;47.470;19.080;2023-07-31T00:38:45;0.93;;;0.93;;
53867;SDS011;41577;47.470;19.080;2023-07-31T00:38:59;0.95;;;0.90;;
53867;SDS011;41577;47.470;19.080;2023-07-31T00:39:11;1.27;;;1.02;;
53867;SDS011;41577;47.470;19.080;2023-07-31T00:39:23;1.33;;;1.20;;
53867;SDS011;41577;47.470;19.080;2023-07-31T00:39:35;1.20;;;1.15;;
53867;SDS011;41577;47.470;19.080;2023-07-31T00:39:47;1.65;;;1.30;;
53867;SDS011;41577;47.470;19.080;2023-07-31T00:39:59;1.80;;;1.35;;
53867;SDS011;41577;47.470;19.080;2023-07-31T00:40:11;2.20;;;1.70;;
53867;SDS011;41577;47.470;19.080;2023-07-31T00:40:23;1.63;;;1.50;;
53867;SDS011;41577;47.470;19.080;2023-07-31T00:40:35;1.33;;;1.25;;
53867;SDS011;41577;47.470;19.080;2023-07-31T00:40:48;1.30;;;1.30;;
53867;SDS011;41577;47.470;19.080;2023-07-31T00:41:00;4.18;;;1.42;;
53867;SDS011;41577;47.470;19.080;2023-07-31T00:41:12;4.30;;;1.33;;
53867;SDS011;41577;47.470;19.080;2023-07-31T00:41:24;2.75;;;1.30;;
53867;SDS011;41577;47.470;19.080;2023-07-31T00:41:36;2.03;;;1.13;;
53867;SDS011;41577;47.470;19.080;2023-07-31T00:41:48;1.75;;;1.20;;
53867;SDS011;41577;47.470;19.080;2023-07-31T00:42:01;2.75;;;1.23;;
53867;SDS011;41577;47.470;19.080;2023-07-31T00:42:13;2.47;;;1.30;;
53867;SDS011;41577;47.470;19.080;2023-07-31T00:42:25;1.85;;;1.48;;
53867;SDS011;41577;47.470;19.080;2023-07-31T00:42:38;1.60;;;1.50;;
53867;SDS011;41577;47.470;19.080;2023-07-31T00:42:49;1.50;;;1.15;;
53867;SDS011;41577;47.470;19.080;2023-07-31T00:43:01;1.67;;;1.08;;
53867;SDS011;41577;47.470;19.080;2023-07-31T00:43:13;1.40;;;1.10;;
53867;SDS011;41577;47.470;19.080;2023-07-31T00:43:25;1.45;;;1.27;;
53867;SDS011;41577;47.470;19.080;2023-07-31T00:43:37;1.15;;;1.13;;
53867;SDS011;41577;47.470;19.080;2023-07-31T00:43:49;1.25;;;1.15;;
53867;SDS011;41577;47.470;19.080;2023-07-31T00:44:01;1.20;;;1.10;;
53867;SDS011;41577;47.470;19.080;2023-07-31T00:44:13;1.17;;;1.17;;
53867;SDS011;41577;47.470;19.080;2023-07-31T00:44:25;1.98;;;1.50;;
53867;SDS011;41577;47.470;19.080;2023-07-31T00:44:37;2.45;;;1.52;;
53867;SDS011;41577;47.470;19.080;2023-07-31T00:44:49;2.47;;;1.63;;
53867;SDS011;41577;47.470;19.080;2023-07-31T00:45:01;3.50;;;1.92;;
53867;SDS011;41577;47.470;19.080;2023-07-31T00:45:14;4.13;;;2.05;;
53867;SDS011;41577;47.470;19.080;2023-07-31T00:45:26;3.65;;;1.80;;
53867;SDS011;41577;47.470;19.080;2023-07-31T00:45:39;1.95;;;1.63;;
53867;SDS011;41577;47.470;19.080;2023-07-31T00:45:51;1.90;;;1.45;;
53867;SDS011;41577;47.470;19.080;2023-07-31T00:46:03;2.03;;;1.55;;
53867;SDS011;41577;47.470;19.080;2023-07-31T00:46:15;1.77;;;1.50;;
53867;SDS011;41577;47.470;19.080;2023-07-31T00:46:27;2.47;;;1.33;;
53867;SDS011;41577;47.470;19.080;2023-07-31T00:46:40;3.15;;;1.27;;
53867;SDS011;41577;47.470;19.080;2023-07-31T00:46:52;3.42;;;1.52;;
53867;SDS011;41577;47.470;19.080;2023-07-31T00:47:04;2.28;;;1.52;;
53867;SDS011;41577;47.470;19.080;2023-07-31T00:47:16;1.55;;;1.40;;
53867;SDS011;41577;47.470;19.080;2023-07-31T00:47:29;2.08;;;1.48;;
53867;SDS011;41577;47.470;19.080;2023-07-31T00:47:41;1.63;;;1.25;;
53867;SDS011;41577;47.470;19.080;2023-07-31T00:47:53;1.48;;;1.27;;
53867;SDS011;41577;47.470;19.080;2023-07-31T00:48:05;1.35;;;1.25;;
53867;SDS011;41577;47.470;19.080;2023-07-31T00:48:18;2.20;;;1.45;;
53867;SDS011;41577;47.470;19.080;2023-07-31T00:48:30;2.03;;;1.65;;
53867;SDS011;41577;47.470;19.080;2023-07-31T00:48:43;1.58;;;1.48;;
53867;SDS011;41577;47.470;19.080;2023-07-31T00:48:55;1.50;;;1.40;;
53867;SDS011;41577;47.470;19.080;2023-07-31T00:49:08;1.63;;;1.23;;
53867;SDS011;41577;47.470;19.080;2023-07-31T00:49:21;2.92;;;1.30;;
53867;SDS011;41577;47.470;19.080;2023-07-31T00:49:34;3.50;;;1.40;;
53867;SDS011;41577;47.470;19.080;2023-07-31T00:49:46;3.20;;;1.45;;
53867;SDS011;41577;47.470;19.080;2023-07-31T00:49:58;1.35;;;1.30;;
53867;SDS011;41577;47.470;19.080;2023-07-31T00:50:10;1.80;;;1.70;;
53867;SDS011;41577;47.470;19.080;2023-07-31T00:50:23;1.77;;;1.67;;
53867;SDS011;41577;47.470;19.080;2023-07-31T00:50:36;1.40;;;1.30;;
53867;SDS011;41577;47.470;19.080;2023-07-31T00:50:48;1.58;;;1.40;;
53867;SDS011;41577;47.470;19.080;2023-07-31T00:51:00;1.50;;;1.38;;
53867;SDS011;41577;47.470;19.080;2023-07-31T00:51:12;1.33;;;1.27;;
53867;SDS011;41577;47.470;19.080;2023-07-31T00:51:24;1.40;;;1.30;;
53867;SDS011;41577;47.470;19.080;2023-07-31T00:51:36;1.50;;;1.40;;
53867;SDS011;41577;47.470;19.080;2023-07-31T00:51:48;1.65;;;1.50;;
53867;SDS011;41577;47.470;19.080;2023-07-31T00:52:02;1.40;;;1.30;;
53867;SDS011;41577;47.470;19.080;2023-07-31T00:52:15;1.63;;;1.38;;
53867;SDS011;41577;47.470;19.080;2023-07-31T00:52:27;2.47;;;1.42;;
53867;SDS011;41577;47.470;19.080;2023-07-31T00:52:40;2.78;;;1.45;;
53867;SDS011;41577;47.470;19.080;2023-07-31T00:52:52;2.58;;;1.52;;
53867;SDS011;41577;47.470;19.080;2023-07-31T00:53:04;1.98;;;1.60;;
53867;SDS011;41577;47.470;19.080;2023-07-31T00:53:17;1.65;;;1.55;;
53867;SDS011;41577;47.470;19.080;2023-07-31T00:53:29;1.70;;;1.60;;
53867;SDS011;41577;47.470;19.080;2023-07-31T00:53:41;1.50;;;1.40;;
53867;SDS011;41577;47.470;19.080;2023-07-31T00:53:55;1.33;;;1.23;;
53867;SDS011;41577;47.470;19.080;2023-07-31T00:54:08;1.40;;;1.30;;
53867;SDS011;41577;47.470;19.080;2023-07-31T00:54:21;1.50;;;1.40;;
53867;SDS011;41577;47.470;19.080;2023-07-31T00:54:33;1.95;;;1.42;;
53867;SDS011;41577;47.470;19.080;2023-07-31T00:54:45;2.30;;;1.60;;
53867;SDS011;41577;47.470;19.080;2023-07-31T00:54:57;1.50;;;1.33;;
53867;SDS011;41577;47.470;19.080;2023-07-31T00:55:10;1.80;;;1.52;;
53867;SDS011;41577;47.470;19.080;2023-07-31T00:55:22;1.52;;;1.40;;
53867;SDS011;41577;47.470;19.080;2023-07-31T00:55:35;1.38;;;1.27;;
53867;SDS011;41577;47.470;19.080;2023-07-31T00:55:47;1.50;;;1.40;;
53867;SDS011;41577;47.470;19.080;2023-07-31T00:55:59;1.83;;;1.63;;
53867;SDS011;41577;47.470;19.080;2023-07-31T00:56:11;2.33;;;1.70;;
53867;SDS011;41577;47.470;19.080;2023-07-31T00:56:23;2.20;;;1.48;;
53867;SDS011;41577;47.470;19.080;2023-07-31T00:56:37;2.30;;;1.60;;
53867;SDS011;41577;47.470;19.080;2023-07-31T00:56:50;1.85;;;1.63;;
53867;SDS011;41577;47.470;19.080;2023-07-31T00:57:06;1.60;;;1.50;;
53867;SDS011;41577;47.470;19.080;2023-07-31T00:57:18;2.05;;;1.65;;
53867;SDS011;41577;47.470;19.080;2023-07-31T00:57:30;2.25;;;1.50;;
53867;SDS011;41577;47.470;19.080;2023-07-31T00:57:43;2.03;;;1.33;;
53867;SDS011;41577;47.470;19.080;2023-07-31T00:57:57;1.38;;;1.23;;
53867;SDS011;41577;47.470;19.080;2023-07-31T00:58:09;1.88;;;1.30;;
53867;SDS011;41577;47.470;19.080;2023-07-31T00:58:22;1.95;;;1.35;;
53867;SDS011;41577;47.470;19.080;2023-07-31T00:58:36;1.92;;;1.45;;
53867;SDS011;41577;47.470;19.080;2023-07-31T00:58:48;1.52;;;1.35;;
53867;SDS011;41577;47.470;19.080;2023-07-31T00:59:00;1.45;;;1.27;;
53867;SDS011;41577;47.470;19.080;2023-07-31T00:59:12;1.55;;;1.45;;
53867;SDS011;41577;47.470;19.080;2023-07-31T00:59:24;1.48;;;1.38;;
53867;SDS011;41577;47.470;19.080;2023-07-31T00:59:36;1.30;;;1.20;;
53867;SDS011;41577;47.470;19.080;2023-07-31T00:59:48;1.42;;;1.33;;
53867;SDS011;41577;47.470;19.080;2023-07-31T01:00:00;1.30;;;1.20;;
53867;SDS011;41577;47.470;19.080;2023-07-31T01:00:12;2.60;;;1.17;;
53867;SDS011;41577;47.470;19.080;2023-07-31T01:00:24;3.00;;;1.23;;
53867;SDS011;41577;47.470;19.080;2023-07-31T01:00:36;1.67;;;1.35;;
53867;SDS011;41577;47.470;19.080;2023-07-31T01:00:49;1.88;;;1.30;;
53867;SDS011;41577;47.470;19.080;2023-07-31T01:01:01;1.40;;;1.30;;
53867;SDS011;41577;47.470;19.080;2023-07-31T01:01:13;1.60;;;1.50;;
53867;SDS011;41577;47.470;19.080;2023-07-31T01:01:25;2.10;;;1.50;;
53867;SDS011;41577;47.470;19.080;2023-07-31T01:01:37;3.40;;;1.75;;
53867;SDS011;41577;47.470;19.080;2023-07-31T01:01:49;3.35;;;1.70;;
53867;SDS011;41577;47.470;19.080;2023-07-31T01:02:02;2.17;;;1.63;;
53867;SDS011;41577;47.470;19.080;2023-07-31T01:02:14;3.15;;;1.60;;
53867;SDS011;41577;47.470;19.080;2023-07-31T01:02:26;2.95;;;1.52;;
53867;SDS011;41577;47.470;19.080;2023-07-31T01:02:38;1.40;;;1.25;;
53867;SDS011;41577;47.470;19.080;2023-07-31T01:02:51;1.58;;;1.27;;
53867;SDS011;41577;47.470;19.080;2023-07-31T01:03:04;1.70;;;1.30;;
53867;SDS011;41577;47.470;19.080;2023-07-31T01:03:17;1.40;;;1.30;;
53867;SDS011;41577;47.470;19.080;2023-07-31T01:03:30;7.68;;;1.90;;
53867;SDS011;41577;47.470;19.080;2023-07-31T01:03:42;8.60;;;2.10;;
53867;SDS011;41577;47.470;19.080;2023-07-31T01:03:54;8.07;;;1.85;;
53867;SDS011;41577;47.470;19.080;2023-07-31T01:04:06;2.00;;;1.40;;
53867;SDS011;41577;47.470;19.080;2023-07-31T01:04:19;1.88;;;1.38;;
53867;SDS011;41577;47.470;19.080;2023-07-31T01:04:33;1.70;;;1.60;;
53867;SDS011;41577;47.470;19.080;2023-07-31T01:04:45;2.08;;;1.63;;
53867;SDS011;41577;47.470;19.080;2023-07-31T01:04:58;1.50;;;1.40;;
53867;SDS011;41577;47.470;19.080;2023-07-31T01:05:10;1.58;;;1.48;;
53867;SDS011;41577;47.470;19.080;2023-07-31T01:05:25;1.70;;;1.60;;
53867;SDS011;41577;47.470;19.080;2023-07-31T01:05:47;2.53;;;1.60;;
53867;SDS011;41577;47.470;19.080;2023-07-31T01:06:09;1.50;;;1.40;;
53867;SDS011;41577;47.470;19.080;2023-07-31T01:06:30;2.30;;;1.38;;
53867;SDS011;41577;47.470;19.080;2023-07-31T01:06:50;2.95;;;1.25;;
53867;SDS011;41577;47.470;19.080;2023-07-31T01:07:11;1.92;;;1.50;;
53867;SDS011;41577;47.470;19.080;2023-07-31T01:07:30;1.73;;;1.63;;
53867;SDS011;41577;47.470;19.080;2023-07-31T01:07:52;2.15;;;1.95;;
53867;SDS011;41577;47.470;19.080;2023-07-31T01:08:15;3.15;;;1.77;;
53867;SDS011;41577;47.470;19.080;2023-07-31T01:08:37;2.55;;;1.50;;
53867;SDS011;41577;47.470;19.080;2023-07-31T01:08:58;1.58;;;1.30;;
53867;SDS011;41577;47.470;19.080;2023-07-31T01:09:18;7.05;;;1.65;;
53867;SDS011;41577;47.470;19.080;2023-07-31T01:09:36;6.18;;;1.70;;
53867;SDS011;41577;47.470;19.080;2023-07-31T01:09:57;3.03;;;1.50;;
53867;SDS011;41577;47.470;19.080;2023-07-31T01:10:15;2.15;;;1.45;;
53867;SDS011;41577;47.470;19.080;2023-07-31T01:10:33;2.40;;;1.50;;
53867;SDS011;41577;47.470;19.080;2023-07-31T01:10:52;2.60;;;1.45;;
53867;SDS011;41577;47.470;19.080;2023-07-31T01:11:11;2.53;;;1.60;;
53867;SDS011;41577;47.470;19.080;2023-07-31T01:11:28;2.70;;;1.77;;
53867;SDS011;41577;47.470;19.080;2023-07-31T01:11:42;1.50;;;1.40;;
53867;SDS011;41577;47.470;19.080;2023-07-31T01:12:00;1.27;;;1.20;;
53867;SDS011;41577;47.470;19.080;2023-07-31T01:12:14;1.30;;;1.27;;
53867;SDS011;41577;47.470;19.080;2023-07-31T01:12:27;1.15;;;1.15;;
53867;SDS011;41577;47.470;19.080;2023-07-31T01:12:39;1.75;;;1.27;;
53867;SDS011;41577;47.470;19.080;2023-07-31T01:12:52;2.50;;;1.48;;
53867;SDS011;41577;47.470;19.080;2023-07-31T01:13:05;2.20;;;1.45;;
53867;SDS011;41577;47.470;19.080;2023-07-31T01:13:17;1.88;;;1.40;;
53867;SDS011;41577;47.470;19.080;2023-07-31T01:13:29;2.10;;;1.45;;
53867;SDS011;41577;47.470;19.080;2023-07-31T01:13:42;2.47;;;1.70;;
53867;SDS011;41577;47.470;19.080;2023-07-31T01:13:54;2.60;;;1.73;;
53867;SDS011;41577;47.470;19.080;2023-07-31T01:14:07;2.28;;;1.73;;
53867;SDS011;41577;47.470;19.080;2023-07-31T01:14:19;1.60;;;1.50;;
53867;SDS011;41577;47.470;19.080;2023-07-31T01:14:33;1.65;;;1.40;;
53867;SDS011;41577;47.470;19.080;2023-07-31T01:14:51;2.40;;;1.33;;
53867;SDS011;41577;47.470;19.080;2023-07-31T01:15:04;2.63;;;1.50;;
53867;SDS011;41577;47.470;19.080;2023-07-31T01:15:18;2.10;;;1.65;;
53867;SDS011;41577;47.470;19.080;2023-07-31T01:15:30;1.75;;;1.65;;
53867;SDS011;41577;47.470;19.080;2023-07-31T01:15:42;1.55;;;1.45;;
53867;SDS011;41577;47.470;19.080;2023-07-31T01:15:54;1.42;;;1.33;;
53867;SDS011;41577;47.470;19.080;2023-07-31T01:16:06;1.65;;;1.40;;